Time;durP1;ratioP1;P1;durP2;ratioP2;P2;SDS_P1;SDS_P2;PMS_P1;PMS_P2;Temp;Humidity;BMP_temperature;BMP_pressure;BME280_temperature;BME280_humidity;BME280_pressure;Samples;Min_cycle;Max_cycle;Signal;HPM_P1;HPM_P2
2022/12/01 00:00:33;;;;;;;69.50;34.53;;;;;;;29.64;69.59;100708.78;5083359;27;69725;-34
2022/12/01 00:03:04;;;;;;;65.43;33.97;;;;;;;30.07;70.47;100773.03;5089911;27;65382;-33
2022/12/01 00:05:36;;;;;;;71.22;35.38;;;;;;;30.09;71.32;100776.34;5080168;27;69670;-32
2022/12/01 00:08:08;;;;;;;72.95;35.30;;;;;;;30.09;71.69;100770.94;5081902;27;65302;-36
2022/12/01 00:10:39;;;;;;;77.70;38.23;;;;;;;30.13;72.06;100782.97;5086070;27;69148;-35
2022/12/01 00:13:11;;;;;;;73.00;36.15;;;;;;;30.14;72.15;100787.31;5087160;27;65978;-32
2022/12/01 00:15:43;;;;;;;70.18;37.80;;;;;;;30.15;72.52;100797.13;5085109;27;70294;-32
2022/12/01 00:18:14;;;;;;;85.27;40.00;;;;;;;30.14;73.07;100800.03;5085453;27;65217;-33
2022/12/01 00:20:49;;;;;;;86.53;41.20;;;;;;;30.09;73.33;100803.41;5082144;27;69380;-35
2022/12/01 00:23:22;;;;;;;79.13;41.53;;;;;;;30.07;73.96;100808.19;5085485;27;65375;-34
2022/12/01 00:25:53;;;;;;;75.22;42.78;;;;;;;30.07;74.24;100805.50;5084836;27;69864;-34
2022/12/01 00:28:24;;;;;;;79.23;41.33;;;;;;;30.07;74.13;100805.50;5085570;27;65358;-34
2022/12/01 00:30:55;;;;;;;72.07;39.20;;;;;;;30.00;73.05;100799.28;5082850;27;70366;-34
2022/12/01 00:33:27;;;;;;;73.63;40.73;;;;;;;30.02;74.07;100818.81;5079336;27;66163;-32
2022/12/01 00:36:03;;;;;;;72.47;39.22;;;;;;;29.86;73.68;100790.41;5083858;27;68870;-33
2022/12/01 00:38:35;;;;;;;63.58;38.60;;;;;;;30.01;73.98;100811.78;5082469;27;66826;-33
2022/12/01 00:41:07;;;;;;;67.50;35.75;;;;;;;30.20;70.73;100823.50;5083627;27;69586;-34
2022/12/01 00:43:38;;;;;;;44.25;30.42;;;;;;;30.14;69.78;100814.38;5094723;27;65890;-33
2022/12/01 00:46:10;;;;;;;42.25;29.50;;;;;;;30.30;68.81;100839.31;5092235;27;70060;-33
2022/12/01 00:48:41;;;;;;;39.78;28.02;;;;;;;30.34;68.35;100837.81;5083017;27;66549;-33
2022/12/01 00:51:12;;;;;;;40.47;27.90;;;;;;;30.30;68.12;100825.78;5085713;27;68505;-33
2022/12/01 00:53:44;;;;;;;37.72;28.02;;;;;;;30.32;67.64;100823.69;5083580;27;66125;-33
2022/12/01 00:56:15;;;;;;;;;;;;;;;30.15;69.38;100851.22;5083247;27;69672;-34
2022/12/01 00:58:46;;;;;;;40.58;26.55;;;;;;;30.47;67.08;100854.81;5083335;27;66621;-33
2022/12/01 01:01:18;;;;;;;38.28;26.75;;;;;;;30.45;67.20;100856.06;5086305;27;69525;-33
2022/12/01 01:03:50;;;;;;;43.15;27.42;;;;;;;30.54;66.91;100860.19;5083826;27;66773;-33
2022/12/01 01:06:21;;;;;;;37.97;26.13;;;;;;;30.58;66.94;100858.69;5083976;27;69666;-34
2022/12/01 01:08:53;;;;;;;40.45;27.02;;;;;;;30.55;67.00;100851.00;5091806;27;65813;-34
2022/12/01 01:11:25;;;;;;;36.17;25.75;;;;;;;30.64;66.64;100859.69;5085450;27;69715;-34
2022/12/01 01:13:58;;;;;;;38.13;27.27;;;;;;;30.58;66.33;100855.97;5085604;27;65823;-34
2022/12/01 01:16:30;;;;;;;39.50;28.10;;;;;;;30.70;66.06;100878.63;5087281;27;70879;-33
2022/12/01 01:19:02;;;;;;;43.38;27.52;;;;;;;30.72;65.90;100879.19;5093374;27;65792;-34
2022/12/01 01:21:33;;;;;;;37.90;28.33;;;;;;;30.57;65.77;100858.94;5084463;27;70495;-33
2022/12/01 01:24:05;;;;;;;39.00;27.02;;;;;;;30.72;66.14;100881.91;5083609;27;66060;-33
2022/12/01 01:26:37;;;;;;;48.45;29.40;;;;;;;30.77;65.49;100888.56;5085786;27;70023;-34
2022/12/01 01:29:08;;;;;;;43.95;28.92;;;;;;;30.75;65.46;100890.66;5083500;27;66656;-34
2022/12/01 01:31:41;;;;;;;40.35;28.73;;;;;;;30.71;65.83;100877.56;5089286;27;70135;-33
2022/12/01 01:34:12;;;;;;;41.90;29.30;;;;;;;30.80;65.78;100891.69;5085419;27;66366;-34
2022/12/01 01:36:44;;;;;;;44.13;29.15;;;;;;;30.77;65.61;100883.16;5082075;27;70004;-33
2022/12/01 01:39:16;;;;;;;46.85;33.72;;;;;;;30.72;65.43;100884.63;5088245;27;66078;-34
2022/12/01 01:41:48;;;;;;;48.70;34.20;;;;;;;30.87;65.49;100902.47;5081834;27;70543;-33
2022/12/01 01:44:54;;;;;;;47.40;34.13;;;;;;;30.78;66.60;100898.34;5085747;27;66365;-33
2022/12/01 01:47:43;;;;;;;43.67;33.75;;;;;;;30.76;66.01;100901.28;5082657;27;70299;-34
2022/12/01 01:50:20;;;;;;;50.45;34.15;;;;;;;30.79;65.47;100894.59;5090159;27;66813;-33
2022/12/01 01:52:59;;;;;;;49.35;34.78;;;;;;;30.93;65.28;100912.44;5083815;27;70287;-33
2022/12/01 01:55:33;;;;;;;42.25;29.83;;;;;;;30.11;65.45;100771.53;5089880;27;64464;-34
2022/12/01 01:58:08;;;;;;;46.33;32.17;;;;;;;30.13;65.51;100782.97;5094022;27;69716;-33
2022/12/01 02:00:43;;;;;;;48.30;31.85;;;;;;;30.58;65.21;100850.56;5089438;27;65704;-33
2022/12/01 02:03:16;;;;;;;41.63;31.10;;;;;;;31.00;65.42;100925.91;5082576;27;70724;-32
2022/12/01 02:05:47;;;;;;;45.20;31.20;;;;;;;30.87;65.28;100897.91;5085781;27;65850;-33
2022/12/01 02:08:19;;;;;;;39.90;30.42;;;;;;;30.88;65.46;100904.97;5085626;27;69181;-33
2022/12/01 02:10:50;;;;;;;34.83;30.08;;;;;;;31.00;65.07;100929.44;5084255;27;65246;-33
2022/12/01 02:13:43;;;;;;;40.33;30.55;;;;;;;30.94;65.87;100927.63;5082274;27;70099;-34
2022/12/01 02:16:39;;;;;;;44.45;32.17;;;;;;;30.63;65.31;100858.88;5088016;27;65549;-33
2022/12/01 02:20:02;;;;;;;41.33;30.58;;;;;;;30.42;65.78;100833.00;5076247;27;70372;-34
2022/12/01 02:23:05;;;;;;;39.92;31.27;;;;;;;30.89;65.25;100911.19;5087949;27;66315;-33
2022/12/01 02:25:48;;;;;;;43.88;30.75;;;;;;;30.64;65.40;100863.22;5087221;27;69638;-32
2022/12/01 02:28:38;;;;;;;42.60;31.20;;;;;;;31.00;65.54;100917.78;5088332;27;66447;-33
2022/12/01 02:31:30;;;;;;;43.08;30.42;;;;;;;30.63;64.82;100837.22;5080153;27;69233;-35
2022/12/01 02:34:24;;;;;;;38.00;29.92;;;;;;;30.96;65.25;100906.56;5084015;27;65781;-34
2022/12/01 02:37:18;;;;;;;39.05;29.10;;;;;;;31.07;64.90;100908.56;5084806;27;69723;-33
2022/12/01 02:40:02;;;;;;;41.05;30.42;;;;;;;31.13;64.98;100915.81;5082595;27;66245;-34
2022/12/01 02:42:55;;;;;;;42.25;30.20;;;;;;;31.07;65.00;100902.31;5083622;27;69538;-34
2022/12/01 02:45:57;;;;;;;40.15;29.63;;;;;;;31.09;64.84;100919.16;5080436;27;65702;-33
2022/12/01 02:48:41;;;;;;;41.47;29.95;;;;;;;31.16;64.77;100928.09;5085957;27;70469;-35
2022/12/01 02:51:35;;;;;;;48.83;31.65;;;;;;;31.06;65.09;100906.06;5081986;27;66583;-33
2022/12/01 02:54:07;;;;;;;37.15;29.42;;;;;;;31.13;64.39;100901.44;5087372;27;69507;-34
2022/12/01 02:56:39;;;;;;;43.42;30.05;;;;;;;31.27;64.04;100913.81;5079420;27;65975;-36
2022/12/01 02:59:14;;;;;;;38.05;29.30;;;;;;;30.80;64.19;100836.69;5089329;27;70533;-33
2022/12/01 03:02:23;;;;;;;36.22;27.80;;;;;;;31.29;64.00;100919.84;5089694;27;66324;-36
2022/12/01 03:04:59;;;;;;;37.00;27.80;;;;;;;31.29;64.04;100917.13;5028207;28;70171;-33
2022/12/01 03:08:02;;;;;;;38.90;29.80;;;;;;;31.20;64.69;100909.50;5076344;27;65296;-34
2022/12/01 03:10:53;;;;;;;33.08;27.85;;;;;;;30.79;64.44;100840.44;5065464;27;70389;-33
2022/12/01 03:13:33;;;;;;;42.80;29.35;;;;;;;31.35;64.04;100904.56;5081638;27;66154;-32
2022/12/01 03:16:15;;;;;;;40.40;29.60;;;;;;;31.36;64.20;100906.25;5091950;27;70492;-33
2022/12/01 03:18:47;;;;;;;35.20;29.55;;;;;;;31.38;64.13;100901.44;5087853;27;66321;-36
2022/12/01 03:21:25;;;;;;;35.92;28.10;;;;;;;31.29;63.84;100881.09;5084090;27;70419;-33
2022/12/01 03:24:10;;;;;;;35.92;29.15;;;;;;;31.33;63.88;100874.16;5088572;27;66546;-34
2022/12/01 03:26:47;;;;;;;37.75;28.75;;;;;;;31.44;63.61;100894.31;5099386;27;70307;-34
2022/12/01 03:29:32;;;;;;;35.75;28.27;;;;;;;31.36;63.56;100873.72;5083013;27;64680;-32
2022/12/01 03:32:19;;;;;;;35.47;28.45;;;;;;;31.50;63.53;100896.94;5074380;27;70208;-33
2022/12/01 03:35:00;;;;;;;38.72;28.45;;;;;;;31.47;63.48;100875.69;5084933;27;65340;-33
2022/12/01 03:37:54;;;;;;;36.35;28.13;;;;;;;31.42;63.39;100878.25;5082797;27;70584;-35
2022/12/01 03:40:30;;;;;;;37.33;27.88;;;;;;;31.54;63.26;100881.06;5084244;27;65843;-33
2022/12/01 03:43:08;;;;;;;37.70;28.02;;;;;;;31.01;63.46;100784.84;5089975;27;70471;-33
2022/12/01 03:45:45;;;;;;;36.47;27.92;;;;;;;31.43;63.50;100844.69;5090072;27;66388;-33
2022/12/01 03:48:17;;;;;;;35.92;28.42;;;;;;;31.58;63.35;100866.81;5084736;27;68850;-33
2022/12/01 03:51:03;;;;;;;37.40;28.33;;;;;;;31.43;63.01;100833.84;5083180;27;66984;-32
2022/12/01 03:53:47;;;;;;;38.80;26.98;;;;;;;31.15;63.17;100780.13;5088028;27;69438;-34
2022/12/01 03:56:24;;;;;;;37.03;27.65;;;;;;;31.66;63.02;100852.13;5083309;27;66148;-35
2022/12/01 03:58:59;;;;;;;36.53;26.42;;;;;;;31.21;63.04;100775.69;5086638;27;69897;-33
2022/12/01 04:01:33;;;;;;;37.17;27.52;;;;;;;31.60;63.28;100832.19;5083712;27;66430;-35
2022/12/01 04:04:10;;;;;;;31.33;26.83;;;;;;;31.34;62.90;100783.63;5084358;27;68719;-34
2022/12/01 04:06:46;;;;;;;30.83;26.90;;;;;;;31.61;62.72;100824.88;5083098;27;65746;-34
2022/12/01 04:09:18;;;;;;;36.13;28.00;;;;;;;31.63;62.73;100816.53;5087931;27;69553;-35
2022/12/01 04:14:39;;;;;;;32.00;26.30;;;;;;;31.39;62.88;100764.84;5084060;27;69779;-33
2022/12/01 04:17:10;;;;;;;35.03;26.67;;;;;;;31.66;62.65;100797.91;5085300;27;65570;-33
2022/12/01 04:19:42;;;;;;;35.90;26.58;;;;;;;31.76;62.72;100808.19;5093480;27;70135;-34
2022/12/01 04:22:13;;;;;;;35.55;26.60;;;;;;;31.74;62.94;100799.47;5088106;27;65425;-34
2022/12/01 04:24:44;;;;;;;33.38;26.02;;;;;;;31.79;62.72;100803.16;5090411;27;70538;-33
2022/12/01 04:27:16;;;;;;;32.65;25.73;;;;;;;31.76;62.47;100791.91;5084234;27;66280;-34
2022/12/01 04:29:48;;;;;;;29.45;24.17;;;;;;;31.83;62.56;100801.63;5085041;27;69616;-33
2022/12/01 04:32:19;;;;;;;;;;;;;;;31.56;63.17;100803.03;5088675;27;66338;-33
2022/12/01 04:34:51;;;;;;;32.38;23.60;;;;;;;31.82;62.42;100793.75;5083076;27;70138;-37
2022/12/01 04:37:22;;;;;;;;;;;;;;;31.60;62.99;100783.38;5082744;27;66252;-33
2022/12/01 04:39:53;;;;;;;33.80;24.77;;;;;;;31.90;62.28;100785.28;5083694;27;69229;-33
2022/12/01 04:42:24;;;;;;;;;;;;;;;31.63;62.93;100790.22;5083634;27;66290;-34
2022/12/01 04:44:56;;;;;;;29.98;23.70;;;;;;;31.88;62.23;100781.97;5088763;27;68695;-34
2022/12/01 04:47:27;;;;;;;31.30;25.90;;;;;;;31.96;62.16;100792.53;5085836;27;66563;-33
2022/12/01 04:50:00;;;;;;;33.53;26.08;;;;;;;31.94;61.89;100783.78;5086381;27;70344;-33
2022/12/01 04:52:31;;;;;;;27.80;24.85;;;;;;;31.97;62.08;100788.75;5086157;27;67113;-34
2022/12/01 04:55:04;;;;;;;34.15;25.00;;;;;;;32.00;62.09;100785.56;5085442;27;69622;-36
2022/12/01 04:57:36;;;;;;;32.63;25.35;;;;;;;31.90;62.09;100760.88;5088491;27;65956;-33
2022/12/01 05:00:12;;;;;;;32.35;25.13;;;;;;;32.04;62.08;100775.94;5085872;27;70963;-34
2022/12/01 05:02:44;;;;;;;31.10;24.17;;;;;;;31.98;61.85;100757.88;5093562;27;66133;-34
2022/12/01 05:05:16;;;;;;;27.98;24.35;;;;;;;32.04;62.03;100762.38;5086844;27;70301;-34
2022/12/01 05:07:47;;;;;;;30.17;24.35;;;;;;;31.97;62.03;100750.78;5085335;27;66210;-36
2022/12/01 05:10:19;;;;;;;29.23;25.13;;;;;;;32.05;62.08;100761.31;5076604;27;68109;-35
2022/12/01 05:12:50;;;;;;;30.60;24.30;;;;;;;31.99;61.79;100743.25;5083387;27;66106;-33
2022/12/01 05:15:22;;;;;;;31.95;24.55;;;;;;;32.09;62.11;100755.41;5083520;27;70143;-33
2022/12/01 05:17:53;;;;;;;34.38;23.98;;;;;;;32.02;61.99;100742.78;5086223;27;65445;-34
2022/12/01 05:23:15;;;;;;;30.52;23.67;;;;;;;32.11;62.08;100742.44;5088243;27;65519;-36
2022/12/01 05:25:46;;;;;;;27.35;22.45;;;;;;;32.13;61.98;100741.16;5089436;27;69411;-37
2022/12/01 05:28:18;;;;;;;30.48;23.58;;;;;;;32.14;62.10;100733.84;5086338;27;65258;-36
2022/12/01 05:30:50;;;;;;;28.67;23.63;;;;;;;32.19;61.84;100728.53;5088560;27;69577;-34
2022/12/01 05:33:22;;;;;;;;;;;;;;;31.87;62.35;100723.34;5080725;27;65781;-34
2022/12/01 05:35:54;;;;;;;24.63;21.77;;;;;;;32.16;61.74;100710.00;5082842;27;70524;-34
2022/12/01 05:38:26;;;;;;;27.95;22.45;;;;;;;32.21;61.99;100707.44;5086819;27;66378;-35
2022/12/01 05:40:57;;;;;;;27.05;22.25;;;;;;;32.22;61.64;100711.78;5093088;27;70279;-33
2022/12/01 05:43:29;;;;;;;28.95;23.02;;;;;;;32.22;61.61;100699.03;5090990;27;64744;-35
2022/12/01 05:46:00;;;;;;;24.55;21.17;;;;;;;32.15;61.30;100673.06;5079989;27;69557;-37
2022/12/01 05:48:32;;;;;;;27.00;22.38;;;;;;;32.25;61.49;100681.47;5084773;27;66071;-34
2022/12/01 05:51:11;;;;;;;27.02;22.42;;;;;;;31.94;61.02;100634.59;5084518;27;69046;-34
2022/12/01 05:53:43;;;;;;;30.30;22.33;;;;;;;32.30;61.26;100668.03;5088939;27;65496;-33
2022/12/01 05:56:15;;;;;;;28.08;23.42;;;;;;;32.22;61.03;100654.78;5082961;27;69517;-33
2022/12/01 05:58:47;;;;;;;25.67;23.05;;;;;;;32.33;61.15;100651.25;5093022;27;65327;-34
2022/12/01 06:01:19;;;;;;;34.17;22.30;;;;;;;32.33;61.09;100636.88;5089113;27;70332;-33
2022/12/01 06:03:51;;;;;;;26.95;22.00;;;;;;;32.35;61.35;100627.44;5084930;27;65453;-33
2022/12/01 06:06:23;;;;;;;27.25;22.27;;;;;;;32.39;61.02;100625.06;5092655;27;70844;-34
2022/12/01 06:08:55;;;;;;;24.90;21.17;;;;;;;32.40;60.98;100613.97;5084345;27;64419;-33
2022/12/01 06:11:26;;;;;;;25.60;22.83;;;;;;;32.11;60.91;100556.03;5083196;27;69023;-33
2022/12/01 06:13:57;;;;;;;32.35;22.23;;;;;;;32.43;61.01;100599.91;5083132;27;65551;-34
2022/12/01 06:16:29;;;;;;;25.17;22.25;;;;;;;32.44;60.88;100592.59;5087988;27;69109;-35
2022/12/01 06:19:00;;;;;;;23.45;21.02;;;;;;;32.41;61.06;100572.19;5086970;27;66322;-36
2022/12/01 06:21:32;;;;;;;24.85;21.92;;;;;;;32.49;60.76;100574.56;5100356;27;69162;-34
2022/12/01 06:24:03;;;;;;;24.35;21.27;;;;;;;32.38;60.90;100550.94;5088293;27;65632;-34
2022/12/01 06:26:35;;;;;;;23.95;21.20;;;;;;;32.54;60.64;100564.84;5081031;27;69392;-34
2022/12/01 06:29:06;;;;;;;22.85;20.42;;;;;;;32.55;60.65;100566.53;5083275;27;66462;-34
2022/12/01 06:31:38;;;;;;;24.63;20.25;;;;;;;32.43;60.35;100548.34;5087136;27;70646;-34
2022/12/01 06:34:10;;;;;;;23.73;19.83;;;;;;;32.10;60.58;100486.56;5087939;27;66017;-33
2022/12/01 06:36:42;;;;;;;24.33;20.42;;;;;;;32.61;60.70;100563.66;5085354;27;70425;-34
2022/12/01 06:39:16;;;;;;;26.13;19.85;;;;;;;32.50;60.38;100542.78;5085052;27;66002;-34
2022/12/01 06:41:47;;;;;;;23.23;20.40;;;;;;;32.61;60.21;100552.00;5089746;27;69936;-37
2022/12/01 06:44:18;;;;;;;25.33;20.70;;;;;;;32.66;60.51;100552.09;5088275;27;66320;-33
2022/12/01 06:46:51;;;;;;;;;;;;;;;32.36;60.73;100546.81;5086369;27;71325;-33
2022/12/01 06:49:23;;;;;;;21.35;19.23;;;;;;;32.67;60.40;100553.72;5088770;27;66844;-33
2022/12/01 06:51:54;;;;;;;21.25;19.13;;;;;;;32.60;60.54;100528.63;5085618;27;69058;-34
2022/12/01 06:54:25;;;;;;;21.67;19.48;;;;;;;32.71;60.11;100544.06;5080321;27;65193;-34
2022/12/01 06:56:57;;;;;;;21.75;18.42;;;;;;;32.74;60.12;100543.56;5081255;27;70108;-35
2022/12/01 06:59:28;;;;;;;;;;;;;;;32.47;60.47;100538.66;5087952;27;66023;-34
2022/12/01 07:02:01;;;;;;;23.60;19.98;;;;;;;32.76;60.11;100529.72;5081892;27;70681;-34
2022/12/01 07:04:33;;;;;;;24.75;19.20;;;;;;;32.81;60.08;100517.06;5080005;27;65304;-34
2022/12/01 07:07:06;;;;;;;20.63;18.63;;;;;;;32.84;59.91;100519.31;5087410;27;70460;-34
2022/12/01 07:09:37;;;;;;;22.85;19.95;;;;;;;32.85;59.83;100518.25;5083221;27;66428;-34
2022/12/01 07:12:08;;;;;;;21.45;19.13;;;;;;;32.72;59.91;100483.22;5085106;27;69248;-36
2022/12/01 07:14:41;;;;;;;24.55;19.27;;;;;;;32.86;59.85;100498.16;5068710;27;66154;-34
2022/12/01 07:17:12;;;;;;;20.63;18.67;;;;;;;32.86;59.95;100491.91;5078513;27;69996;-35
2022/12/01 07:19:43;;;;;;;22.05;19.73;;;;;;;32.91;59.86;100495.53;5085051;27;65422;-35
2022/12/01 07:22:15;;;;;;;20.38;18.42;;;;;;;32.40;59.70;100415.81;5082882;27;68979;-34
2022/12/01 07:24:47;;;;;;;20.45;18.45;;;;;;;32.92;59.30;100497.19;5087158;27;66490;-35
2022/12/01 07:27:18;;;;;;;20.02;18.02;;;;;;;32.93;60.06;100493.41;5089061;27;70487;-36
2022/12/01 07:29:49;;;;;;;19.70;17.70;;;;;;;32.94;59.70;100500.50;5086917;27;65670;-34
2022/12/01 07:32:21;;;;;;;20.63;18.17;;;;;;;32.97;59.69;100490.22;5088346;27;70051;-35
2022/12/01 07:34:53;;;;;;;21.02;19.13;;;;;;;32.98;59.58;100484.50;5083147;27;65773;-36
2022/12/01 07:37:24;;;;;;;22.08;19.02;;;;;;;32.99;59.42;100486.19;5084048;27;70242;-35
2022/12/01 07:39:56;;;;;;;21.08;18.80;;;;;;;33.02;59.53;100479.47;5085829;27;66973;-35
2022/12/01 07:42:27;;;;;;;21.10;18.98;;;;;;;33.02;59.47;100479.47;5079727;27;70067;-34
2022/12/01 07:44:59;;;;;;;21.15;18.90;;;;;;;33.04;59.47;100480.03;5079839;27;66046;-33
2022/12/01 07:47:30;;;;;;;22.52;18.88;;;;;;;33.05;59.34;100473.53;5086071;27;69330;-34
2022/12/01 07:50:03;;;;;;;20.50;17.88;;;;;;;33.08;58.97;100478.50;5080346;27;66710;-35
2022/12/01 07:52:34;;;;;;;20.35;18.40;;;;;;;32.76;59.34;100427.34;5082846;27;70679;-34
2022/12/01 07:55:07;;;;;;;19.33;17.38;;;;;;;33.03;59.19;100470.25;5086109;27;65590;-34
2022/12/01 07:57:38;;;;;;;20.23;18.15;;;;;;;33.11;59.30;100488.88;5081149;27;70465;-34
2022/12/01 08:00:10;;;;;;;20.23;17.98;;;;;;;33.11;59.17;100488.88;5083397;27;66219;-38
2022/12/01 08:02:41;;;;;;;20.33;18.20;;;;;;;33.11;59.13;100494.31;5086995;27;69412;-36
2022/12/01 08:05:13;;;;;;;22.35;18.55;;;;;;;33.15;59.22;100500.88;5086332;27;66364;-37
2022/12/01 08:07:44;;;;;;;19.20;17.30;;;;;;;33.15;59.05;100501.72;5085445;27;70259;-35
2022/12/01 08:10:16;;;;;;;18.55;16.98;;;;;;;33.03;59.06;100483.81;5086737;27;65119;-34
2022/12/01 08:12:47;;;;;;;19.35;17.05;;;;;;;33.18;58.96;100510.44;5105057;27;70099;-34
2022/12/01 08:15:19;;;;;;;19.08;17.02;;;;;;;33.09;59.14;100486.38;5083102;27;65484;-34
2022/12/01 08:17:51;;;;;;;22.58;17.70;;;;;;;33.16;58.87;100488.97;5087512;27;69224;-36
2022/12/01 08:20:22;;;;;;;19.00;16.92;;;;;;;33.21;58.95;100496.34;5080329;27;66445;-35
2022/12/01 08:22:53;;;;;;;23.35;17.48;;;;;;;33.20;58.94;100498.25;5084913;27;70368;-35
2022/12/01 08:25:25;;;;;;;17.42;15.85;;;;;;;33.21;58.88;100489.06;5082644;27;65355;-34
2022/12/01 08:27:56;;;;;;;18.55;16.60;;;;;;;33.11;58.90;100478.81;5084510;27;69565;-33
2022/12/01 08:30:29;;;;;;;25.33;17.52;;;;;;;33.15;58.80;100479.97;5085690;27;65448;-35
2022/12/01 08:33:01;;;;;;;18.15;16.25;;;;;;;33.24;58.83;100493.13;5087438;27;70369;-35
2022/12/01 08:35:35;;;;;;;19.38;16.23;;;;;;;32.78;58.46;100413.53;5087630;27;65457;-35
2022/12/01 08:38:12;;;;;;;19.38;17.52;;;;;;;33.14;58.58;100474.78;5080704;27;70625;-35
2022/12/01 08:40:44;;;;;;;19.40;17.08;;;;;;;33.25;58.85;100494.81;5087538;27;66549;-35
2022/12/01 08:43:15;;;;;;;;;;;;;;;32.97;59.35;100488.31;5085501;27;69629;-34
2022/12/01 08:46:06;;;;;;;24.92;16.50;;;;;;;33.23;58.81;100492.31;5087429;27;66878;-34
2022/12/01 08:48:39;;;;;;;20.25;16.42;;;;;;;33.09;58.83;100458.38;5089942;27;70634;-37
2022/12/01 08:51:15;;;;;;;18.73;16.17;;;;;;;33.28;58.61;100495.13;5088150;27;43214;-35
2022/12/01 08:53:49;;;;;;;24.45;16.30;;;;;;;33.25;58.82;100495.63;5079641;27;70435;-37
2022/12/01 08:56:33;;;;;;;24.80;15.73;;;;;;;33.15;58.72;100490.84;5079655;27;65610;-35
2022/12/01 08:59:04;;;;;;;19.40;15.48;;;;;;;33.26;58.60;100508.13;5081373;27;70385;-33
2022/12/01 09:01:56;;;;;;;16.35;14.75;;;;;;;33.26;58.64;100502.69;5082312;27;66396;-34
2022/12/01 09:04:32;;;;;;;18.45;15.18;;;;;;;33.25;58.75;100514.66;5086998;27;69989;-34
2022/12/01 09:07:04;;;;;;;16.92;15.35;;;;;;;33.22;58.90;100504.28;5084780;27;66502;-35
2022/12/01 09:09:35;;;;;;;17.13;15.52;;;;;;;33.25;58.64;100525.53;5083632;27;68998;-34
2022/12/01 09:12:07;;;;;;;19.10;15.75;;;;;;;33.25;58.81;100530.97;5082895;27;66397;-33
2022/12/01 09:14:44;;;;;;;18.48;15.80;;;;;;;32.84;58.57;100456.81;5091511;27;70523;-34
2022/12/01 09:17:16;;;;;;;15.05;13.57;;;;;;;33.12;59.01;100534.81;5088790;27;66304;-33
2022/12/01 09:19:48;;;;;;;26.65;14.18;;;;;;;33.01;59.62;100534.88;5086886;27;70253;-35
2022/12/01 09:22:20;;;;;;;27.70;14.02;;;;;;;32.90;60.27;100537.38;5083471;27;66298;-33
2022/12/01 09:24:52;;;;;;;22.80;13.35;;;;;;;32.83;59.86;100544.84;5084331;27;69463;-34
2022/12/01 09:27:23;;;;;;;18.50;12.60;;;;;;;32.71;60.42;100527.75;5083880;27;66397;-34
2022/12/01 09:29:54;;;;;;;21.15;13.00;;;;;;;32.75;60.01;100545.22;5087315;27;69004;-34
2022/12/01 09:32:26;;;;;;;;;;;;;;;32.48;60.35;100550.34;5085343;27;66520;-34
2022/12/01 09:34:57;;;;;;;17.67;10.68;;;;;;;32.58;59.82;100528.84;5067737;27;70263;-34
2022/12/01 09:37:28;;;;;;;12.02;10.82;;;;;;;32.65;59.86;100551.28;5087297;27;66477;-34
2022/12/01 09:40:00;;;;;;;12.52;10.98;;;;;;;32.62;60.15;100551.72;5086230;27;69555;-34
2022/12/01 09:42:31;;;;;;;18.10;11.20;;;;;;;32.57;60.15;100553.50;5089991;27;65438;-35
2022/12/01 09:45:05;;;;;;;17.38;10.52;;;;;;;32.59;60.40;100557.66;5085269;27;70222;-34
2022/12/01 09:47:38;;;;;;;15.82;10.82;;;;;;;32.57;60.95;100564.38;5081834;27;65729;-34
2022/12/01 09:50:18;;;;;;;20.45;11.20;;;;;;;32.56;60.54;100570.88;5090739;27;68718;-34
2022/12/01 09:53:14;;;;;;;12.25;10.10;;;;;;;32.49;61.27;100574.56;5086775;27;67100;-35
2022/12/01 09:55:46;;;;;;;12.00;10.90;;;;;;;32.49;62.09;100563.69;5089121;27;69222;-37
2022/12/01 09:58:22;;;;;;;16.45;11.00;;;;;;;32.34;61.97;100544.31;5086636;27;65503;-34
2022/12/01 10:00:54;;;;;;;17.65;10.98;;;;;;;32.45;62.56;100567.91;5084101;27;70631;-37
2022/12/01 10:03:45;;;;;;;14.52;10.57;;;;;;;31.89;62.74;100482.53;5094569;27;66542;-34
2022/12/01 10:06:24;;;;;;;11.68;10.40;;;;;;;32.36;62.83;100552.25;5086252;27;69424;-34
2022/12/01 10:09:05;;;;;;;16.42;10.43;;;;;;;32.39;63.14;100563.44;5083749;27;65135;-34
2022/12/01 10:11:41;;;;;;;15.80;11.23;;;;;;;32.42;63.17;100579.25;5090265;27;72204;-33
2022/12/01 10:14:19;;;;;;;16.42;11.07;;;;;;;32.30;63.48;100564.88;5089265;27;65983;-34
2022/12/01 10:17:14;;;;;;;15.07;10.00;;;;;;;32.40;63.54;100575.97;5069896;27;69977;-36
2022/12/01 10:19:50;;;;;;;18.20;10.20;;;;;;;32.10;63.74;100543.53;5081376;27;66622;-38
2022/12/01 10:22:40;;;;;;;15.68;10.10;;;;;;;32.39;64.07;100590.59;5079416;27;69669;-34
2022/12/01 10:25:25;;;;;;;28.05;9.77;;;;;;;32.38;64.23;100586.22;5086033;27;66839;-34
2022/12/01 10:28:04;;;;;;;16.30;9.70;;;;;;;31.94;64.87;100523.38;5083954;27;69999;-34
2022/12/01 10:30:48;;;;;;;16.20;10.05;;;;;;;31.94;65.46;100528.78;5091371;27;65375;-35
2022/12/01 10:33:32;;;;;;;22.83;10.93;;;;;;;31.92;65.95;100530.09;5080612;27;69711;-34
2022/12/01 10:36:03;;;;;;;24.30;10.30;;;;;;;32.35;66.84;100600.28;5088515;27;66804;-35
2022/12/01 10:38:36;;;;;;;;;;;;;;;32.17;68.48;100612.06;5084924;27;70464;-36
2022/12/01 10:41:13;;;;;;;18.55;10.20;;;;;;;32.30;67.62;100607.47;5099900;27;66385;-35
2022/12/01 10:43:49;;;;;;;17.02;9.95;;;;;;;32.39;67.92;100617.72;5089360;27;70125;-34
2022/12/01 10:46:31;;;;;;;19.92;10.05;;;;;;;32.41;68.81;100621.03;5082392;27;65766;-37
2022/12/01 10:49:17;;;;;;;14.10;8.65;;;;;;;32.08;68.14;100566.53;5087554;27;70244;-35
2022/12/01 10:51:51;;;;;;;18.75;7.72;;;;;;;31.77;66.65;100489.84;5085928;27;65903;-36
2022/12/01 10:54:33;;;;;;;12.75;7.18;;;;;;;32.63;66.67;100642.19;5082296;27;69225;-34
2022/12/01 10:57:13;;;;;;;12.00;7.18;;;;;;;32.69;65.68;100643.94;5094941;27;66437;-37
2022/12/01 11:00:07;;;;;;;20.30;8.45;;;;;;;32.64;65.74;100651.97;5087565;27;69563;-37
2022/12/01 11:02:43;;;;;;;11.80;8.00;;;;;;;31.96;65.10;100507.69;5081489;27;65517;-35
2022/12/01 11:05:25;;;;;;;13.43;8.55;;;;;;;32.77;65.53;100651.75;5088822;27;70292;-36
2022/12/01 11:07:56;;;;;;;13.88;8.63;;;;;;;32.77;65.47;100656.34;5075359;27;65929;-34
2022/12/01 11:10:36;;;;;;;8.60;7.50;;;;;;;32.82;64.93;100662.72;5091482;27;70515;-35
2022/12/01 11:13:23;;;;;;;10.63;7.63;;;;;;;32.85;64.59;100659.53;5071018;27;66092;-36
2022/12/01 11:15:56;;;;;;;11.57;7.40;;;;;;;32.36;64.79;100579.38;5082625;27;69195;-37
2022/12/01 11:18:32;;;;;;;12.10;6.53;;;;;;;32.87;64.55;100662.81;5080751;27;66227;-37
2022/12/01 11:21:14;;;;;;;10.70;7.18;;;;;;;32.89;64.11;100665.28;5089859;27;69827;-36
2022/12/01 11:23:47;;;;;;;16.83;7.13;;;;;;;32.41;64.07;100596.63;5084804;27;65371;-37
2022/12/01 11:26:27;;;;;;;11.45;6.57;;;;;;;32.88;63.75;100666.38;5080641;27;70506;-35
2022/12/01 11:29:00;;;;;;;13.57;7.03;;;;;;;32.87;63.99;100665.53;5082026;27;65561;-36
2022/12/01 11:31:46;;;;;;;15.00;7.25;;;;;;;32.61;63.96;100637.00;5088158;27;69645;-35
2022/12/01 11:34:38;;;;;;;11.80;6.85;;;;;;;32.44;64.18;100606.16;5085821;27;66382;-35
2022/12/01 11:37:17;;;;;;;12.18;7.18;;;;;;;32.52;63.95;100626.75;5081937;27;70201;-35
2022/12/01 11:39:51;;;;;;;13.20;6.70;;;;;;;32.88;64.11;100690.81;5084541;27;64764;-35
2022/12/01 11:42:28;;;;;;;15.68;6.82;;;;;;;32.88;64.61;100691.63;5084661;27;70690;-37
2022/12/01 11:45:22;;;;;;;9.98;6.93;;;;;;;32.88;64.53;100702.50;5087129;27;66607;-34
2022/12/01 11:48:19;;;;;;;23.65;7.65;;;;;;;32.87;64.19;100698.13;5100829;27;69006;-35
2022/12/01 11:51:26;;;;;;;10.38;7.55;;;;;;;32.30;64.18;100630.00;5080024;27;66235;-35
2022/12/01 11:54:21;;;;;;;12.65;7.30;;;;;;;32.77;64.07;100700.63;5075534;27;69296;-34
2022/12/01 11:56:54;;;;;;;18.60;8.68;;;;;;;32.82;63.90;100691.75;5081411;27;66604;-38